Tiempo atmosférico en la estación meteorológica de Tarifa, Cádiz (32 m.)



Fecha
DESCASC
Temp. máxima en grados centígrados (hora)
DESCASC
Temp. mínima en grados centígrados (hora)
DESCASC
Temp. media en grados centígrados
DESCASC
Racha de viento máxima en m/sg (hora)
DESCASC
Velocidad máxima media en intervalos de 10 minutos(hora)
DESCASC
Precipitaciones diarias en mm
DESCASC
Precipitaciones de 00:00 a 06:00 en mm
DESCASC
Precipitaciones de 06:00 a 12:00 en mm
DESCASC
Precipitaciones de 12:00 a 18:00 en mm
DESCASC
Precipitaciones de 18:00 a 24:00 en mm
DESCASC
20-09-2020 22.6 (13:30) 17 (07:00) 19.8 10.56 (19:20) 6.39 (17:10) 0 0 0 0 0
19-09-2020 23.6 (15:40) 19 (07:50) 21.3 8.89 (14:10) 5.28 (13:40) 0 0 0 0 0
18-09-2020 25.4 (12:30) 20.5 (07:00) 22.9 12.78 (06:30) 8.33 (06:40) 0 0 0 0 0
17-09-2020 26.8 (12:40) 21.7 (00:00) 24.3 15 (17:20) 8.33 (15:00) 0.1 0 0 0 0.1
16-09-2020 25.3 (14:00) 21.3 (00:00) 23.3 13.06 (14:10) 9.17 (22:00) 0 0 0 0 0
15-09-2020 27.1 (15:10) 21.5 (00:00) 24.3 11.94 (17:30) 8.06 (13:00) 0 0 0 0 0
14-09-2020 26.4 (15:00) 22.7 (00:00) 24.6 17.5 (13:10) 11.39 (02:10) 0 0 0 0 0
13-09-2020 25.9 (16:20) 22.5 (00:00) 24.2 20 (02:00) 12.78 (02:00) 0 0 0 0 0
12-09-2020 26.7 (13:20) 21.1 (00:00) 23.9 19.72 (14:40) 13.89 (15:00) 0 0 0 0 0
11-09-2020 25.3 (14:40) 21 (00:00) 23.1 17.5 (14:50) 11.39 (16:50) 0 0 0 0 0
10-09-2020 25.1 (15:40) 20.4 (00:00) 22.8 14.44 (13:40) 10 (14:00) 0 0 0 0 0
09-09-2020 25 (14:00) 21.2 (00:00) 23.1 18.33 (03:50) 11.94 (03:20) 0 0 0 0 0
08-09-2020 25.1 (14:40) 21.6 (00:00) 23.4 18.06 (13:40) 12.5 (12:00) 0 0 0 0 0
07-09-2020 28.5 (17:30) 20.6 (23:20) 24.6 17.78 (01:00) 11.39 (00:40) 0 0 0 0 0
06-09-2020 25.4 (16:00) 21.1 (00:00) 23.3 19.17 (02:00) 12.78 (11:50) 0 0 0 0 0
05-09-2020 24.9 (15:10) 21.7 (00:00) 23.3 18.61 (13:50) 12.78 (12:20) 0 0 0 0 0
04-09-2020 25.6 (12:50) 22 (00:00) 23.8 21.39 (11:40) 14.17 (11:10) 0 0 0 0 0
03-09-2020 25.7 (14:20) 21.1 (00:00) 23.4 21.67 (17:10) 14.44 (17:20) 0 0 0 0 0
02-09-2020 24.8 (13:10) 17.1 (00:00) 20.9 14.72 (19:40) 10.56 (16:30) 0 0 0 0 0
01-09-2020 25 (17:30) 19.5 (00:00) 22.3 17.22 (04:40) 10.83 (04:10) 0 0 0 0 0
31-08-2020 26.2 (14:30) 21.2 (00:00) 23.7 21.67 (15:40) 13.61 (15:40) 0 0 0 0 0
30-08-2020 26.9 (14:10) 15.5 (00:00) 21.2 15.28 (13:00) 10 (16:00) 0 0 0 0 0
29-08-2020 22.3 (17:20) 17.8 (00:00) 20 11.94 (02:50) 8.33 (16:00) 0 0 0 0 0
28-08-2020 24.1 (16:40) 20.6 (00:00) 22.4 11.11 (14:30) 7.5 (13:40) 0 0 0 0 0
27-08-2020 29.5 (16:50) 21.4 (00:00) 25.4 13.89 (11:30) 9.44 (11:30) 0 0 0 0 0
26-08-2020 27.5 (17:00) 22.8 (00:00) 25.1 14.72 (15:30) 10.28 (11:40) 0 0 0 0 0
25-08-2020 27.7 (14:40) 23.1 (00:00) 25.4 16.11 (04:10) 11.11 (00:10) 0 0 0 0 0
24-08-2020 27.7 (14:30) 20.5 (00:00) 24.1 16.39 (22:20) 10.56 (23:59) 0 0 0 0 0

Gráficas

Temp. máximas Temp. mínimas Temp. medias Precipitaciones Rachas de viento máximas Velocidades máximas media en intervalos de 10 minutos

Datos horarios

Fecha y hora oficial Temperatura (ºC) Velocidad del viento (km/h) Dirección del viento Racha (km/h) Dirección de racha Precipitación (mm) Presión (hPa) Tendencia (hPa) Humedad (%)
2020-09-22 23:00:00 21.2 12 Noroeste 21 Oeste 0 1011.4 1.6 73
2020-09-22 22:00:00 21.6 11 Oeste 23 Oeste 0 1011.1 -- 69
2020-09-22 21:00:00 21 17 Oeste 27 Oeste 0 1010.5 -- 78
2020-09-22 20:00:00 21.4 15 Oeste 26 Oeste 0 1009.8 -- 73
2020-09-22 19:00:00 21.4 17 Oeste 29 Oeste 0 1009.9 -- 79
2020-09-22 18:00:00 21.6 13 Noroeste 29 Oeste 0 1010.2 -- 85
2020-09-22 17:00:00 22.4 14 Oeste 27 Oeste 0 1010.2 -- 81
2020-09-22 16:00:00 22.7 17 Oeste 30 Oeste 0 1010.8 -- 79
2020-09-22 15:00:00 22.7 17 Oeste 32 Oeste 0 1011.6 -- 82
2020-09-22 14:00:00 22.5 10 Oeste 30 Oeste 0 1012.1 -- 88
2020-09-22 13:00:00 22.4 15 Oeste 28 Oeste 0 1012.2 -- 84
2020-09-22 12:00:00 22 14 Oeste 24 Oeste 0 1012.2 -- 86
2020-09-22 11:00:00 21.6 12 Oeste 19 Oeste 0 1012.1 -- 88
2020-09-22 10:00:00 20.6 9 Oeste 14 Oeste 0 1011.5 -- 86
2020-09-22 09:00:00 18.9 6 Noroeste 15 Noroeste 0 1011 -- 86
2020-09-22 08:00:00 18.2 10 Noroeste 15 Noroeste 0 1010.7 -- 88
2020-09-22 07:00:00 18 5 Noroeste 9 Oeste 0 1010.7 -- 89
2020-09-22 06:00:00 19.2 4 Oeste 13 Oeste 0 1010.5 -- 87
2020-09-22 05:00:00 19.7 6 Oeste 12 Sudoeste 0 1010.2 -- 86
2020-09-22 04:00:00 20.5 4 Oeste 10 Oeste 0 1010.9 -- 74
2020-09-22 03:00:00 21 2 Oeste 21 Noroeste 0 1011.3 -- 72
2020-09-22 02:00:00 21.9 3 Oeste 27 Noroeste 0 1011.5 -- 65
2020-09-22 01:00:00 22.4 13 Noroeste 32 Noroeste 0 1011.6 -- 63
2020-09-22 00:00:00 22.9 19 Noroeste 34 Norte 0 1011.5 -- 62
2020-09-21 23:00:00 22.9 15 Noroeste 25 Noroeste 0 1012 -- 63
2020-09-21 22:00:00 22.5 6 Oeste 20 Noroeste 0 1011.7 -- 71
2020-09-21 21:00:00 21.8 9 Noroeste 28 Oeste 0 1010.9 -- 76
2020-09-21 20:00:00 21.3 15 Oeste 32 Oeste 0 1011 -- 84
2020-09-21 19:00:00 22.3 21 Oeste 35 Oeste 0 1010.8 -- 80
2020-09-21 18:00:00 22.6 17 Oeste 35 Oeste 0 1011 -- 80
2020-09-21 17:00:00 22.4 21 Oeste 34 Oeste 0 1011.4 -- 85
2020-09-21 16:00:00 22.9 13 Sudoeste 25 Oeste 0 1011.8 -- 83
2020-09-21 15:00:00 22.4 14 Oeste 29 Oeste 0 1012.3 -- 85
2020-09-21 14:00:00 23 13 Oeste 21 Oeste 0 1012.9 -- 83
2020-09-21 13:00:00 22.5 9 Oeste 19 Oeste 0 1013.1 -- 81
2020-09-21 12:00:00 22.5 13 Sudoeste 19 Sudoeste 0 1013.3 -- 79
2020-09-21 11:00:00 21.7 10 Sudoeste 15 Sudoeste 0 1013.1 -- 82
2020-09-21 10:00:00 20.1 8 Sudoeste 14 Sudoeste 0 1012.7 -- 84
2020-09-21 09:00:00 19.2 9 Oeste 14 Oeste 0 1012.6 -- 85
2020-09-21 08:00:00 18.3 6 Oeste 18 Noroeste 0 1012.3 -- 87
2020-09-21 07:00:00 18.1 9 Oeste 13 Oeste 0 1011.8 -- 92
2020-09-21 06:00:00 18.2 9 Noroeste 16 Oeste 0 1011.6 -- 90
2020-09-21 05:00:00 19 12 Oeste 17 Oeste 0 1012 -- 86
2020-09-21 04:00:00 19.4 10 Oeste 16 Oeste 0 1012.4 -- 84
2020-09-21 03:00:00 19.9 9 Oeste 13 Noroeste 0 1012.9 -- 83
2020-09-21 02:00:00 20.1 9 Noroeste 19 Oeste 0 1013.3 -- 81
2020-09-21 01:00:00 20.5 14 Noroeste 29 Norte 0 1013.5 -- 78
2020-09-21 00:00:00 21 14 Noroeste 31 Norte 0 1013.5 -- 74
2020-09-20 23:00:00 21.1 9 Noroeste 17 Oeste 0 1013.7 -- 75
2020-09-20 22:00:00 22.3 11 Noroeste 20 Norte 0 1013.3 -- 69
2020-09-20 21:00:00 21 6 Noroeste 30 Oeste 0 1012.9 -- 83
2020-09-20 20:00:00 20.7 18 Oeste 38 Oeste 0 1012.5 -- 88
2020-09-20 19:00:00 21.3 19 Oeste 37 Oeste 0 1012.4 -- 85
2020-09-20 18:00:00 21.6 20 Oeste 36 Oeste 0 1012.3 -- 84
2020-09-20 17:00:00 22.1 19 Oeste 36 Oeste 0 1012.7 -- 81
2020-09-20 16:00:00 22.3 20 Oeste 34 Oeste 0 1013.2 -- 80
2020-09-20 15:00:00 22.2 18 Oeste 32 Oeste 0 1013.8 -- 80
2020-09-20 14:00:00 22.1 21 Oeste 31 Oeste 0 1014.6 -- 80
2020-09-20 13:00:00 22.2 14 Sudoeste 26 Oeste 0 1014.9 -- 79
2020-09-20 12:00:00 21.6 15 Sudoeste 24 Oeste 0 1015 -- 87
2020-09-20 11:00:00 20.6 7 Oeste 14 Oeste 0 1014.9 -- 91
2020-09-20 10:00:00 19.2 7 Oeste 12 Oeste 0 1014.9 -- 93
2020-09-20 09:00:00 17.8 3 Noroeste 8 Noroeste 0 1014.4 -- 96
2020-09-20 08:00:00 17.6 4 Noroeste 10 Noroeste 0 1014.3 -- 95
2020-09-20 07:00:00 17 7 Noroeste 12 Noroeste 0 1014.4 -- 96
2020-09-20 06:00:00 17.8 4 Noroeste 9 Noroeste 0 1014.4 -- 94
2020-09-20 05:00:00 18.3 5 Noroeste 13 Noroeste 0 1014.3 -- 91
2020-09-20 04:00:00 18.4 10 Noroeste 17 Noroeste 0 1014.7 -- 91
2020-09-20 03:00:00 18.7 8 Noroeste 17 Noroeste 0 1015.2 -- 90
2020-09-20 02:00:00 18.6 7 Noroeste 14 Noroeste 0 1015.2 -- 92
2020-09-20 01:00:00 19.1 7 Noroeste 12 Noroeste 0 1015.4 -- 91
2020-09-20 00:00:00 19.5 6 Noroeste 19 Noroeste 0 1015.6 -- 87
2020-09-19 23:00:00 20.4 12 Noroeste 21 Oeste 0 1015.3 -- 86
2020-09-19 22:00:00 20.4 13 Noroeste 28 Oeste 0 1014.9 -- 86
2020-09-19 21:00:00 20.9 15 Oeste 24 Oeste 0 1014 -- 89
2020-09-19 20:00:00 21.8 13 Oeste 25 Oeste 0 1013.7 -- 84
2020-09-19 19:00:00 22.5 17 Oeste 28 Oeste 0 1013.6 -- 86
2020-09-19 18:00:00 23 16 Oeste 27 Oeste 0 1013.4 -- 84
2020-09-19 17:00:00 23 14 Oeste 30 Oeste 0 1013.5 -- 83
2020-09-19 16:00:00 23.1 15 Oeste 26 Oeste 0 1013.8 -- 81
2020-09-19 15:00:00 23.3 14 Oeste 32 Sudoeste 0 1014.4 -- 80
2020-09-19 14:00:00 23.2 16 Oeste 30 Oeste 0 1014.8 -- 78
2020-09-19 13:00:00 22.8 15 Oeste 28 Oeste 0 1015 -- 78
2020-09-19 12:00:00 23.2 10 Sudoeste 19 Sudoeste 0 1014.9 -- 75
2020-09-19 11:00:00 22 9 Sudoeste 15 Sudoeste 0 1014.7 -- 82
2020-09-19 10:00:00 21 6 Sudoeste 17 Sudoeste 0 1014.2 -- 84
2020-09-19 09:00:00 19.7 8 Sudoeste 14 Sur 0 1013.7 -- 92
2020-09-19 08:00:00 19 6 Sudoeste 16 Sudoeste 0 1013.2 -- 95
2020-09-19 07:00:00 19.3 6 Sudoeste 17 Sudoeste 0 1012.8 -- 95
2020-09-19 06:00:00 19.8 8 Sudoeste 19 Sudoeste 0 1012.7 -- 94
2020-09-19 05:00:00 20 10 Sudoeste 21 Sur 0 1012.6 -- 93
2020-09-19 04:00:00 20 11 Sudoeste 19 Sudoeste 0 1012.6 -- 94
2020-09-19 03:00:00 20.1 15 Sudoeste 23 Sudoeste 0 1012.8 -- 94
2020-09-19 02:00:00 20.5 15 Sudoeste 23 Sudoeste 0 1013.2 -- 92
2020-09-19 01:00:00 20.7 13 Sudoeste 23 Sudoeste 0 1013.2 -- 90
2020-09-19 00:00:00 21.1 17 Sudoeste 26 Sudoeste 0 1013.4 -- 89
2020-09-18 23:00:00 21 14 Sudoeste 29 Sudoeste 0 1013 -- 90
2020-09-18 22:00:00 21.3 16 Sudoeste 33 Sudoeste 0 1012.6 -- 90
2020-09-18 21:00:00 21.6 22 Sudoeste 36 Sudoeste 0 1011.6 -- 85
2020-09-18 20:00:00 22.4 23 Sudoeste 39 Sudoeste 0 1011 -- 83
2020-09-18 19:00:00 23 25 Sudoeste 40 Sudoeste 0 1010.5 -- 79
2020-09-18 18:00:00 23.5 25 Sudoeste 35 Sudoeste 0 1010.5 -- 74
2020-09-18 17:00:00 24.1 21 Sudoeste 36 Sudoeste 0 1010.5 -- 71
2020-09-18 16:00:00 23.4 24 Sudoeste 45 Sudoeste 0 1010.3 -- 75
2020-09-18 15:00:00 23.5 30 Sudoeste 43 Sudoeste 0 1010.3 -- 74
2020-09-18 14:00:00 24.4 10 Sudoeste 24 Sudoeste 0 1009.8 -- 67
2020-09-18 13:00:00 24.6 17 Sudoeste 25 Sudoeste 0 1009.8 -- 69
2020-09-18 12:00:00 24.4 8 Sudeste 22 Este 0 1009.5 -- 74
2020-09-18 11:00:00 23.3 16 Este 33 Nordeste 0 1009 -- 82
2020-09-18 10:00:00 21.4 18 Nordeste 37 Este 0 1008.1 -- 91
2020-09-18 09:00:00 20.8 21 Nordeste 37 Nordeste 0 1007.5 -- 95
2020-09-18 08:00:00 20.6 24 Este 42 Este 0 1007.4 -- 92
2020-09-18 07:00:00 20.6 26 Este 46 Este 0 1007.1 -- 90
2020-09-18 06:00:00 20.9 22 Nordeste 36 Este 0 1007 -- 88
2020-09-18 05:00:00 21.1 12 Nordeste 22 Nordeste 0 1007.7 -- 89
2020-09-18 04:00:00 21.4 10 Este 18 Este 0 1008.4 -- 80
2020-09-18 03:00:00 21.3 3 Sur 14 Sudeste 0 1009 -- 81
2020-09-18 02:00:00 21.2 12 Sur 35 Sur 0 1009.7 -- 82
2020-09-18 01:00:00 22.1 22 Sudoeste 39 Sudoeste 0 1009.6 -- 80
2020-09-18 00:00:00 22.3 15 Sur 43 Sur 0 1009.7 -- 73
2020-09-17 23:00:00 23 27 Sur 46 Sur 0 1009.9 -- 68
2020-09-17 22:00:00 22.5 8 Sur 23 Sur 0 1009.4 -- 76
2020-09-17 21:00:00 22.7 12 Sur 25 Sudoeste 0.1 1009.2 -- 74
2020-09-17 20:00:00 22.8 18 Sur 27 Sur 0 1008.9 -- 76
2020-09-17 19:00:00 23.5 8 Sur 32 Este 0 1008.6 -- 73
2020-09-17 18:00:00 24.1 15 Este 54 Este 0 1008.3 -- 83
2020-09-17 17:00:00 23.7 24 Nordeste 42 Este 0 1007.8 -- 90
2020-09-17 16:00:00 25.5 24 Este 41 Este 0 1007.9 -- 81
2020-09-17 15:00:00 26.1 30 Este 44 Este 0 1007.8 -- 81
2020-09-17 14:00:00 24.6 22 Este 36 Este 0 1008.5 -- 85
2020-09-17 13:00:00 25.9 26 Este 37 Este 0 1008.6 -- 79
2020-09-17 12:00:00 26.4 23 Este 37 Este 0 1009.2 -- 78
2020-09-17 11:00:00 24 22 Este 35 Nordeste 0 1009.4 -- 90
2020-09-17 10:00:00 23.4 21 Nordeste 34 Este 0 1009.2 -- 93
2020-09-17 09:00:00 22.9 22 Nordeste 34 Nordeste 0 1009.2 -- 96
2020-09-17 08:00:00 22.7 17 Este 37 Este 0 1009.1 -- 95
2020-09-17 07:00:00 22.4 23 Nordeste 38 Nordeste 0 1008.5 -- 94
2020-09-17 06:00:00 22.2 17 Este 34 Este 0 1008.5 -- 92
2020-09-17 05:00:00 22.3 22 Nordeste 37 Nordeste 0 1008.8 -- 91
2020-09-17 04:00:00 22.4 17 Nordeste 35 Nordeste 0 1009.2 -- 90
2020-09-17 03:00:00 21.8 14 Nordeste 26 Nordeste 0 1010.3 -- 93
2020-09-17 02:00:00 22.1 14 Nordeste 31 Este 0 1010.9 -- 95
2020-09-17 01:00:00 22.1 19 Nordeste 42 Este 0 1011.1 -- 94
2020-09-17 00:00:00 22.2 30 Nordeste 45 Este 0 1010.3 -- 92
2020-09-16 23:00:00 22.2 31 Nordeste 45 Este 0 1010.1 -- 92
2020-09-16 22:00:00 22.2 33 Este 47 Este 0 1010.3 -- 93
2020-09-16 21:00:00 22.3 24 Este 36 Este 0 1011 -- 92
2020-09-16 20:00:00 22.6 22 Este 38 Este 0 1010.6 -- 90
2020-09-16 19:00:00 22.8 24 Este 44 Este 0 1010.5 -- 90
2020-09-16 18:00:00 23.2 28 Este 44 Este 0 1010.3 -- 89
2020-09-16 17:00:00 24.4 30 Este 46 Este 0 1009.9 -- 83
2020-09-16 16:00:00 24.9 23 Este 45 Este 0 1010.9 -- 82
2020-09-16 15:00:00 24.6 31 Este 47 Este 0 1011.2 -- 83
2020-09-16 14:00:00 25.1 32 Este 47 Este 0 1011.8 -- 80
2020-09-16 13:00:00 24.3 30 Este 43 Este 0 1012.2 -- 85
2020-09-16 12:00:00 23.4 24 Este 37 Este 0 1013.2 -- 90
2020-09-16 11:00:00 24 21 Este 36 Este 0 1013.5 -- 89
2020-09-16 10:00:00 23 20 Este 32 Nordeste 0 1013.3 -- 92
2020-09-16 09:00:00 21.7 21 Este 39 Este 0 1012.9 -- 97
2020-09-16 08:00:00 21.7 23 Este 38 Este 0 1012.6 -- 96
2020-09-16 07:00:00 21.8 22 Este 35 Este 0 1012.9 -- 96
2020-09-16 06:00:00 21.8 20 Este 28 Este 0 1013 -- 94
2020-09-16 05:00:00 22.2 13 Nordeste 21 Este 0 1013.5 -- 92
2020-09-16 04:00:00 22.6 10 Nordeste 24 Nordeste 0 1014.3 -- 89
2020-09-16 03:00:00 22.6 14 Nordeste 33 Nordeste 0 1014.3 -- 88
2020-09-16 02:00:00 22.1 18 Nordeste 27 Nordeste 0 1014.5 -- 92
2020-09-16 01:00:00 21.9 13 Nordeste 22 Nordeste 0 1014.8 -- 94
2020-09-16 00:00:00 21.5 6 Nordeste 14 Nordeste 0 1015.2 -- 94
2020-09-15 23:00:00 22 9 Nordeste 22 Nordeste 0 1015 -- 95
2020-09-15 22:00:00 22.3 9 Nordeste 28 Este 0 1014.5 -- 94
2020-09-15 21:00:00 22.6 12 Nordeste 37 Este 0 1013.8 -- 96
2020-09-15 20:00:00 23.1 23 Este 37 Este 0 1013.5 -- 92
2020-09-15 19:00:00 23.9 24 Este 39 Este 0 1013.6 -- 87
2020-09-15 18:00:00 25 26 Este 43 Este 0 1013.5 -- 82
2020-09-15 17:00:00 25.5 28 Este 40 Nordeste 0 1013.9 -- 78
2020-09-15 16:00:00 26.3 23 Este 41 Este 0 1014.7 -- 76
2020-09-15 15:00:00 26.9 23 Este 36 Este 0 1015.6 -- 71
2020-09-15 14:00:00 26.3 26 Este 42 Este 0 1015.9 -- 73
2020-09-15 13:00:00 25.4 29 Este 39 Este 0 1016.4 -- 77
2020-09-15 12:00:00 25.1 23 Este 33 Este 0 1016.7 -- 81
2020-09-15 11:00:00 24.6 16 Nordeste 25 Este 0 1016.6 -- 82
2020-09-15 10:00:00 23.4 16 Este 26 Este 0 1016.3 -- 83
2020-09-15 09:00:00 23 7 Nordeste 18 Nordeste 0 1015.9 -- 81
2020-09-15 08:00:00 22.8 10 Nordeste 19 Nordeste 0 1015.2 -- 82
2020-09-15 07:00:00 22.5 10 Nordeste 20 Nordeste 0 1014.9 -- 85
2020-09-15 06:00:00 22.4 11 Nordeste 26 Este 0 1015 -- 87
2020-09-15 05:00:00 22.5 15 Nordeste 24 Nordeste 0 1015.2 -- 90
2020-09-15 04:00:00 22.7 15 Nordeste 27 Nordeste 0 1015.6 -- 90
2020-09-15 03:00:00 22.6 15 Nordeste 27 Este 0 1015.8 -- 91
2020-09-15 02:00:00 22.7 17 Nordeste 31 Nordeste 0 1015.8 -- 91
2020-09-15 01:00:00 22.7 18 Nordeste 34 Este 0 1015.7 -- 93
2020-09-15 00:00:00 22.7 20 Nordeste 33 Este 0 1015.6 -- 94
2020-09-14 23:00:00 22.8 23 Nordeste 36 Este 0 1015.5 -- 93
2020-09-14 22:00:00 22.8 18 Nordeste 30 Este 0 1015.2 -- 92
2020-09-14 21:00:00 23 17 Nordeste 34 Este 0 1014.9 -- 92
2020-09-14 20:00:00 23.4 22 Nordeste 44 Este 0 1014.5 -- 89
2020-09-14 19:00:00 24 30 Este 46 Este 0 1013.5 -- 86
2020-09-14 18:00:00 24.7 30 Este 51 Este 0 1013.7 -- 84
2020-09-14 17:00:00 25.2 33 Este 57 Este 0 1013.8 -- 82
2020-09-14 16:00:00 25.8 33 Este 58 Este 0 1014.7 -- 80
2020-09-14 15:00:00 26.1 35 Este 58 Este 0 1014.6 -- 79
2020-09-14 14:00:00 25.6 39 Este 63 Este 0 1015.5 -- 81
2020-09-14 13:00:00 24.9 37 Este 59 Este 0 1015.7 -- 83
2020-09-14 12:00:00 25.1 37 Este 62 Este 0 1015.7 -- 81
2020-09-14 11:00:00 24.3 38 Este 59 Este 0 1015.3 -- 83
2020-09-14 10:00:00 24.3 36 Este 60 Este 0 1014.5 -- 86
2020-09-14 09:00:00 23.2 37 Este 59 Este 0 1014 -- 89
2020-09-14 08:00:00 23.1 36 Nordeste 57 Este 0 1013.6 -- 89
2020-09-14 07:00:00 23.2 36 Nordeste 58 Nordeste 0 1013.5 -- 88
2020-09-14 06:00:00 23.2 31 Nordeste 50 Nordeste 0 1013.2 -- 87
2020-09-14 05:00:00 23.1 30 Nordeste 55 Nordeste 0 1013.7 -- 87
2020-09-14 04:00:00 23.1 31 Nordeste 54 Nordeste 0 1014 -- 88
2020-09-14 03:00:00 23.2 35 Este 62 Nordeste 0 1014.5 -- 87
2020-09-14 02:00:00 23.3 39 Este 60 Nordeste 0 1014.1 -- 84
2020-09-14 01:00:00 23.4 37 Nordeste 62 Nordeste 0 1014.7 -- 83
2020-09-14 00:00:00 23 36 Nordeste 64 Nordeste 0 1014.4 -- 87
2020-09-13 23:00:00 22.9 36 Nordeste 63 Este 0 1015 -- 89
2020-09-13 22:00:00 22.8 40 Nordeste 62 Este 0 1014 -- 90
2020-09-13 21:00:00 22.8 36 Este 58 Este 0 1013.4 -- 90
2020-09-13 20:00:00 23.3 40 Nordeste 66 Este 0 1012.9 -- 87
2020-09-13 19:00:00 24.5 40 Este 61 Este 0 1012.7 -- 82
2020-09-13 18:00:00 25 41 Este 64 Este 0 1012.5 -- 79
2020-09-13 17:00:00 25.4 42 Este 67 Nordeste 0 1012.9 -- 76
2020-09-13 16:00:00 25.7 43 Este 72 Este 0 1012.7 -- 75
2020-09-13 15:00:00 25.2 44 Este 65 Este 0 1013.3 -- 77
2020-09-13 14:00:00 24.9 38 Este 63 Nordeste 0 1014.3 -- 78
2020-09-13 13:00:00 25.3 37 Este 64 Este 0 1014.1 -- 77
2020-09-13 12:00:00 24.8 40 Este 64 Este 0 1014.4 -- 80
2020-09-13 11:00:00 24.2 38 Este 64 Este 0 1013.6 -- 82
2020-09-13 10:00:00 23 37 Este 62 Este 0 1012.9 -- 88
2020-09-13 09:00:00 22.7 38 Este 60 Este 0 1012.3 -- 90
2020-09-13 08:00:00 22.7 35 Este 63 Nordeste 0 1011.9 -- 92
2020-09-13 07:00:00 22.8 39 Este 66 Este 0 1011.3 -- 89
2020-09-13 06:00:00 23.1 37 Nordeste 63 Nordeste 0 1011 -- 85
2020-09-13 05:00:00 23.5 36 Nordeste 66 Nordeste 0 1011.1 -- 81
2020-09-13 04:00:00 24.4 39 Nordeste 70 Nordeste 0 1010.9 -- 73
2020-09-13 03:00:00 24.8 40 Nordeste 72 Este 0 1011.1 -- 66
2020-09-13 02:00:00 24.7 46 Nordeste 72 Nordeste 0 1011.3 -- 69
2020-09-13 01:00:00 24.5 41 Nordeste 69 Este 0 1011.6 -- 70
2020-09-13 00:00:00 24.3 41 Nordeste 71 Este 0 1010.9 -- 73
2020-09-12 23:00:00 23.5 40 Nordeste 68 Este 0 1010.7 -- 80
2020-09-12 22:00:00 23.2 42 Nordeste 64 Este 0 1010.2 -- 85
2020-09-12 21:00:00 23.1 41 Este 65 Este 0 1009.2 -- 85
2020-09-12 20:00:00 23.2 41 Este 65 Este 0 1008.9 -- 85
2020-09-12 19:00:00 23.9 39 Este 65 Este 0 1008.6 -- 82
2020-09-12 18:00:00 23.9 42 Este 70 Este 0 1008.7 -- 82
2020-09-12 17:00:00 24.5 43 Este 67 Nordeste 0 1008.6 -- 82
2020-09-12 16:00:00 25.6 44 Este 69 Este 0 1008.9 -- 77
2020-09-12 15:00:00 25.6 50 Este 71 Este 0 1009.4 -- 77
2020-09-12 14:00:00 25.8 43 Este 71 Este 0 1009.1 -- 74
2020-09-12 13:00:00 26.3 37 Nordeste 66 Este 0 1009.5 -- 71
2020-09-12 12:00:00 25.2 39 Este 65 Este 0 1009.5 -- 74
2020-09-12 11:00:00 24.4 39 Este 63 Este 0 1009.2 -- 74
2020-09-12 10:00:00 23.6 41 Este 60 Nordeste 0 1008.6 -- 80
2020-09-12 09:00:00 22.7 37 Este 57 Nordeste 0 1008.1 -- 83
2020-09-12 08:00:00 21.6 35 Este 55 Nordeste 0 1007.7 -- 85
2020-09-12 07:00:00 21.5 37 Este 53 Nordeste 0 1007.4 -- 82
2020-09-12 06:00:00 21.3 36 Este 55 Este 0 1007.4 -- 76
2020-09-12 05:00:00 21.3 36 Este 52 Este 0 1007.4 -- 81
2020-09-12 04:00:00 21.5 35 Este 53 Este 0 1007.4 -- 88
2020-09-12 03:00:00 22.1 31 Nordeste 52 Este 0 1007.7 -- 82
2020-09-12 02:00:00 21.8 31 Nordeste 56 Nordeste 0 1007.6 -- 90
2020-09-12 01:00:00 21.8 33 Nordeste 52 Este 0 1007.5 -- 90
2020-09-12 00:00:00 21.8 36 Nordeste 55 Este 0 1007.5 -- 90
2020-09-11 23:00:00 21.9 34 Este 54 Este 0 1007.6 -- 90
2020-09-11 22:00:00 22.1 33 Este 55 Nordeste 0 1007.4 -- 89
2020-09-11 21:00:00 22.2 35 Este 56 Este 0 1006.8 -- 88
2020-09-11 20:00:00 22.5 36 Este 56 Este 0 1006.5 -- 85
2020-09-11 19:00:00 23.5 39 Este 62 Este 0 1006.3 -- 82
2020-09-11 18:00:00 24.5 37 Este 60 Este 0 1006.4 -- 80
2020-09-11 17:00:00 24.6 39 Este 59 Nordeste 0 1007.1 -- 78
2020-09-11 16:00:00 24.3 37 Este 59 Este 0 1007.6 -- 79
2020-09-11 15:00:00 24.5 41 Este 63 Este 0 1008.1 -- 79
2020-09-11 14:00:00 24.6 36 Este 59 Este 0 1008.8 -- 77
2020-09-11 13:00:00 24.5 37 Este 57 Este 0 1009.3 -- 78
2020-09-11 12:00:00 24.4 40 Nordeste 58 Este 0 1009.1 -- 77
2020-09-11 11:00:00 23.7 39 Nordeste 59 Este 0 1009 -- 78
2020-09-11 10:00:00 22.6 35 Este 53 Este 0 1008.8 -- 84
2020-09-11 09:00:00 21.8 33 Nordeste 52 Este 0 1008.6 -- 87
2020-09-11 08:00:00 21.3 32 Nordeste 54 Nordeste 0 1008.3 -- 91
2020-09-11 07:00:00 21.2 31 Nordeste 53 Nordeste 0 1008 -- 92
2020-09-11 06:00:00 21.1 28 Nordeste 53 Este 0 1008 -- 92
2020-09-11 05:00:00 21.2 28 Nordeste 46 Nordeste 0 1008.2 -- 93
2020-09-11 04:00:00 21.3 25 Nordeste 42 Este 0 1008.8 -- 93
2020-09-11 03:00:00 21.3 26 Nordeste 46 Nordeste 0 1009.3 -- 91
2020-09-11 02:00:00 21.2 26 Nordeste 43 Este 0 1009.6 -- 91
2020-09-11 01:00:00 21.6 28 Este 43 Este 0 1010.2 -- 89
2020-09-11 00:00:00 21.5 24 Este 37 Nordeste 0 1010.1 -- 81
2020-09-10 23:00:00 22.7 23 Nordeste 36 Este 0 1010.2 -- 67
2020-09-10 22:00:00 22.6 24 Este 41 Este 0 1009.7 -- 69
2020-09-10 21:00:00 23.1 27 Nordeste 44 Nordeste 0 1009 -- 58
2020-09-10 20:00:00 24.1 30 Este 44 Este 0 1008.8 -- 55
2020-09-10 19:00:00 23.7 32 Este 45 Este 0 1009 -- 75
2020-09-10 18:00:00 24.8 30 Este 44 Este 0 1009.5 -- 71
2020-09-10 17:00:00 24.6 29 Este 44 Este 0 1010.2 -- 75
2020-09-10 16:00:00 24.9 26 Este 46 Este 0 1010.9 -- 74
2020-09-10 15:00:00 24.5 30 Este 50 Este 0 1011.6 -- 75
2020-09-10 14:00:00 24.2 36 Este 52 Este 0 1012.1 -- 77
2020-09-10 13:00:00 24.2 33 Este 48 Este 0 1012.8 -- 74
2020-09-10 12:00:00 23.9 27 Este 41 Este 0 1013.5 -- 73
2020-09-10 11:00:00 23.4 27 Este 44 Este 0 1013.6 -- 73
2020-09-10 10:00:00 22.7 23 Este 47 Este 0 1013.5 -- 76
2020-09-10 09:00:00 21.6 26 Nordeste 68 Nordeste 0 1013.2 -- 82
2020-09-10 08:00:00 20.7 22 Nordeste 42 Este 0 1012.9 -- 87
2020-09-10 07:00:00 20.5 25 Nordeste 46 Nordeste 0 1012.9 -- 83
2020-09-10 06:00:00 20.8 27 Este 41 Este 0 1012.4 -- 87
2020-09-10 05:00:00 21.2 24 Nordeste 39 Nordeste 0 1013.2 -- 84
2020-09-10 04:00:00 21.3 24 Nordeste 43 Nordeste 0 1013.1 -- 86
2020-09-10 03:00:00 21.2 25 Nordeste 42 Nordeste 0 1013.9 -- 89
2020-09-10 02:00:00 21.3 21 Nordeste 40 Nordeste 0 1014.2 -- 88
2020-09-10 01:00:00 21.3 26 Nordeste 40 Nordeste 0 1014.4 -- 89
2020-09-10 00:00:00 21.3 20 Nordeste 47 Este 0 1014.8 -- 90
2020-09-09 23:00:00 21.5 30 Este 48 Este 0 1014.1 -- 89
2020-09-09 22:00:00 21.6 29 Este 48 Nordeste 0 1013.6 -- 88
2020-09-09 21:00:00 21.8 26 Este 45 Nordeste 0 1012.9 -- 87
2020-09-09 20:00:00 22.4 30 Este 51 Este 0 1012.6 -- 83
2020-09-09 19:00:00 23.3 33 Este 50 Este 0 1012.2 -- 79
2020-09-09 18:00:00 23.7 32 Este 53 Este 0 1012.6 -- 77
2020-09-09 17:00:00 24.5 34 Este 53 Este 0 1012.6 -- 74
2020-09-09 16:00:00 24.6 37 Este 57 Este 0 1013.2 -- 71
2020-09-09 15:00:00 24.8 35 Este 53 Este 0 1014 -- 71
2020-09-09 14:00:00 24.8 35 Este 54 Este 0 1014.2 -- 70
2020-09-09 13:00:00 24.7 37 Este 54 Nordeste 0 1014.8 -- 70
2020-09-09 12:00:00 24.4 39 Este 54 Este 0 1014.9 -- 72
2020-09-09 11:00:00 24 36 Este 58 Este 0 1014.9 -- 74
2020-09-09 10:00:00 23 36 Nordeste 55 Este 0 1014.6 -- 79
2020-09-09 09:00:00 22 31 Nordeste 53 Este 0 1014 -- 84
2020-09-09 08:00:00 21.5 30 Nordeste 53 Nordeste 0 1013.4 -- 87
2020-09-09 07:00:00 21.6 30 Nordeste 53 Este 0 1013.2 -- 87
2020-09-09 06:00:00 21.5 33 Nordeste 55 Nordeste 0 1012.8 -- 87
2020-09-09 05:00:00 21.6 36 Este 59 Nordeste 0 1012.4 -- 87
2020-09-09 04:00:00 21.8 42 Este 66 Este 0 1012.7 -- 88
2020-09-09 03:00:00 21.7 40 Nordeste 65 Este 0 1013.1 -- 88
2020-09-09 02:00:00 21.9 37 Nordeste 58 Este 0 1013.3 -- 89
2020-09-09 01:00:00 22 37 Nordeste 63 Nordeste 0 1013.4 -- 86
2020-09-09 00:00:00 22 37 Nordeste 59 Este 0 1013.9 -- 84
2020-09-08 23:00:00 22 38 Nordeste 65 Este 0 1013.9 -- 88
2020-09-08 22:00:00 22.1 41 Nordeste 61 Este 0 1013.3 -- 90
2020-09-08 21:00:00 21.7 34 Este 62 Este 0 1012.8 -- 90
2020-09-08 20:00:00 22.3 35 Este 53 Nordeste 0 1012.8 -- 85
2020-09-08 19:00:00 23.1 33 Nordeste 54 Este 0 1012.9 -- 81
2020-09-08 18:00:00 23.8 35 Este 58 Este 0 1012.7 -- 78
2020-09-08 17:00:00 24.5 36 Este 65 Este 0 1012.4 -- 77
2020-09-08 16:00:00 24.5 40 Este 59 Este 0 1013 -- 78
2020-09-08 15:00:00 25 37 Este 61 Este 0 1013.2 -- 76
2020-09-08 14:00:00 24.8 39 Nordeste 65 Este 0 1013.1 -- 78
2020-09-08 13:00:00 24.8 40 Este 61 Este 0 1013.3 -- 77
2020-09-08 12:00:00 24.5 45 Nordeste 64 Este 0 1013.2 -- 80
2020-09-08 11:00:00 24 41 Nordeste 62 Este 0 1013 -- 83
2020-09-08 10:00:00 23.1 39 Nordeste 58 Este 0 1012.6 -- 87
2020-09-08 09:00:00 22.4 35 Nordeste 55 Este 0 1012.5 -- 93
2020-09-08 08:00:00 22 32 Este 54 Nordeste 0 1012.1 -- 93
2020-09-08 07:00:00 22.1 35 Nordeste 54 Nordeste 0 1012.1 -- 92
2020-09-08 06:00:00 22.3 30 Nordeste 50 Nordeste 0 1012.1 -- 91
2020-09-08 05:00:00 22.3 32 Nordeste 53 Nordeste 0 1012.1 -- 90
2020-09-08 04:00:00 22.3 29 Nordeste 48 Nordeste 0 1012.3 -- 94
2020-09-08 03:00:00 22.4 29 Nordeste 48 Este 0 1012.6 -- 93
2020-09-08 02:00:00 22.1 28 Nordeste 48 Este 0 1012.9 -- 94
2020-09-08 01:00:00 22.8 30 Nordeste 46 Este 0 1012.6 -- 93
2020-09-08 00:00:00 22 24 Nordeste 37 Este 0 1012 -- 90
2020-09-07 23:00:00 21 17 Este 25 Este 0 1011.4 -- 95
2020-09-07 22:00:00 20.9 9 Este 13 Este 0 1010.6 -- 94
2020-09-07 21:00:00 21.3 4 Sudeste 12 Oeste 0 1009.8 -- 89
2020-09-07 20:00:00 22.6 8 Oeste 21 Oeste 0 1009.3 -- 85
2020-09-07 19:00:00 23.3 13 Oeste 21 Oeste 0 1009.2 -- 81
2020-09-07 18:00:00 28 8 Oeste 17 Noroeste 0 1009.1 -- 52
2020-09-07 17:00:00 28.1 6 Este 30 Este 0 1009.2 -- 60
2020-09-07 16:00:00 27.1 21 Este 38 Este 0 1009.3 -- 66
2020-09-07 15:00:00 26.8 23 Este 37 Este 0 1010 -- 68
2020-09-07 14:00:00 25.3 26 Este 38 Este 0 1010.3 -- 73
2020-09-07 13:00:00 25 26 Este 39 Este 0 1010.6 -- 73
2020-09-07 12:00:00 25.1 20 Nordeste 35 Este 0 1010.9 -- 73
2020-09-07 11:00:00 24.2 21 Este 46 Este 0 1010.8 -- 77
2020-09-07 10:00:00 22.6 21 Este 35 Este 0 1010.5 -- 86
2020-09-07 09:00:00 21.8 18 Este 35 Este 0 1010.4 -- 91
2020-09-07 08:00:00 21.2 22 Este 36 Este 0 1010 -- 94
2020-09-07 07:00:00 21.3 21 Nordeste 35 Este 0 1009.9 -- 94
2020-09-07 06:00:00 21.3 22 Nordeste 36 Nordeste 0 1009.9 -- 93
2020-09-07 05:00:00 21.4 22 Nordeste 48 Este 0 1010.1 -- 93
2020-09-07 04:00:00 21.6 31 Este 48 Este 0 1009.9 -- 93
2020-09-07 03:00:00 21.7 35 Este 57 Este 0 1009.8 -- 93
2020-09-07 02:00:00 21.8 40 Este 61 Nordeste 0 1009.7 -- 93
2020-09-07 01:00:00 21.9 39 Este 64 Nordeste 0 1009.6 -- 92
2020-09-07 00:00:00 21.7 35 Este 61 Este 0 1009.5 -- 93
2020-09-06 23:00:00 21.9 40 Este 60 Este 0 1009.5 -- 92
2020-09-06 22:00:00 22 39 Este 59 Este 0 1008.8 -- 92
2020-09-06 21:00:00 22.2 35 Este 55 Este 0 1008.6 -- 89
2020-09-06 20:00:00 22.7 37 Este 60 Este 0 1008 -- 85
2020-09-06 19:00:00 24.4 34 Este 54 Este 0 1008.7 -- 71
2020-09-06 18:00:00 24.7 37 Este 57 Nordeste 0 1008.9 -- 69
2020-09-06 17:00:00 24.9 36 Este 56 Este 0 1009.1 -- 73
2020-09-06 16:00:00 25.2 36 Este 60 Este 0 1009.7 -- 72
2020-09-06 15:00:00 24.8 41 Este 60 Este 0 1010 -- 73
2020-09-06 14:00:00 24.9 39 Este 64 Este 0 1010.2 -- 73
2020-09-06 13:00:00 24.5 41 Este 62 Nordeste 0 1010.5 -- 76
2020-09-06 12:00:00 24 42 Este 63 Nordeste 0 1010.6 -- 79
2020-09-06 11:00:00 23.5 45 Este 65 Este 0 1009.8 -- 78
2020-09-06 10:00:00 22.8 44 Este 62 Este 0 1009.5 -- 84
2020-09-06 09:00:00 21.8 37 Nordeste 59 Este 0 1009.4 -- 88
2020-09-06 08:00:00 21.2 37 Nordeste 61 Nordeste 0 1009 -- 91
2020-09-06 07:00:00 21.3 36 Este 60 Nordeste 0 1009.1 -- 91
2020-09-06 06:00:00 21.2 39 Este 60 Este 0 1008.9 -- 90
2020-09-06 05:00:00 21.4 40 Este 63 Este 0 1008.9 -- 89
2020-09-06 04:00:00 21.4 40 Este 64 Este 0 1009.1 -- 89
2020-09-06 03:00:00 21.5 39 Nordeste 67 Este 0 1009.3 -- 89
2020-09-06 02:00:00 21.6 39 Nordeste 69 Nordeste 0 1010 -- 90
2020-09-06 01:00:00 21.5 40 Nordeste 67 Este 0 1010.4 -- 92
2020-09-06 00:00:00 21.8 39 Nordeste 66 Este 0 1010.8 -- 91
2020-09-05 23:00:00 21.8 44 Este 67 Nordeste 0 1010.5 -- 91
2020-09-05 22:00:00 22 41 Este 62 Este 0 1010.1 -- 91
2020-09-05 21:00:00 21.9 39 Este 62 Nordeste 0 1009.6 -- 90
2020-09-05 20:00:00 22.5 39 Este 64 Este 0 1009.6 -- 87
2020-09-05 19:00:00 23.1 39 Este 59 Este 0 1009.6 -- 83
2020-09-05 18:00:00 23.7 39 Este 62 Este 0 1010 -- 79
2020-09-05 17:00:00 24.4 39 Este 66 Este 0 1010.8 -- 75
2020-09-05 16:00:00 24.8 41 Este 62 Este 0 1011.6 -- 72
2020-09-05 15:00:00 24.8 41 Este 63 Este 0 1012 -- 73
2020-09-05 14:00:00 24.7 46 Este 67 Nordeste 0 1012.3 -- 74
2020-09-05 13:00:00 24.5 46 Este 67 Este 0 1012.6 -- 75
2020-09-05 12:00:00 24.4 45 Este 62 Este 0 1013.1 -- 77
2020-09-05 11:00:00 23.9 41 Este 64 Este 0 1012.9 -- 79
2020-09-05 10:00:00 22.9 40 Nordeste 62 Este 0 1012.7 -- 85
2020-09-05 09:00:00 22.2 39 Nordeste 61 Este 0 1012.7 -- 88
2020-09-05 08:00:00 22 37 Nordeste 60 Este 0 1012.4 -- 89
2020-09-05 07:00:00 22.1 37 Nordeste 67 Nordeste 0 1012 -- 88
2020-09-05 06:00:00 22.2 39 Nordeste 64 Este 0 1012 -- 87
2020-09-05 05:00:00 22.3 39 Nordeste 63 Este 0 1012.1 -- 86
2020-09-05 04:00:00 22.5 40 Nordeste 61 Nordeste 0 1012.8 -- 85
2020-09-05 03:00:00 22.3 37 Nordeste 63 Nordeste 0 1013.1 -- 86
2020-09-05 02:00:00 22.2 35 Nordeste 66 Nordeste 0 1013.8 -- 87
2020-09-05 01:00:00 22.3 39 Nordeste 62 Este 0 1013.9 -- 87
2020-09-05 00:00:00 22.3 40 Nordeste 65 Nordeste 0 1014 -- 88
2020-09-04 23:00:00 22.5 36 Nordeste 56 Nordeste 0 1014 -- 88
2020-09-04 22:00:00 22.7 36 Nordeste 59 Este 0 1014.2 -- 87
2020-09-04 21:00:00 22.7 34 Nordeste 60 Este 0 1013.4 -- 87
2020-09-04 20:00:00 23.2 42 Nordeste 66 Nordeste 0 1013.5 -- 84
2020-09-04 19:00:00 23.9 43 Nordeste 62 Este 0 1013.3 -- 80
2020-09-04 18:00:00 24.5 45 Nordeste 70 Nordeste 0 1013.7 -- 78
2020-09-04 17:00:00 24.7 48 Nordeste 68 Este 0 1014 -- 76
2020-09-04 16:00:00 25 43 Este 67 Nordeste 0 1013.9 -- 74
2020-09-04 15:00:00 25.3 44 Este 69 Nordeste 0 1014.9 -- 71
2020-09-04 14:00:00 25 50 Nordeste 70 Este 0 1015 -- 72
2020-09-04 13:00:00 25.5 42 Nordeste 71 Nordeste 0 1015.6 -- 72
2020-09-04 12:00:00 25 45 Este 77 Este 0 1015.1 -- 73
2020-09-04 11:00:00 24 49 Este 73 Este 0 1015.2 -- 78
2020-09-04 10:00:00 23.2 45 Nordeste 73 Este 0 1014.5 -- 83
2020-09-04 09:00:00 22.7 44 Nordeste 69 Este 0 1014 -- 86
2020-09-04 08:00:00 22.1 46 Nordeste 74 Este 0 1013.4 -- 89
2020-09-04 07:00:00 22.2 44 Nordeste 68 Nordeste 0 1013.1 -- 90
2020-09-04 06:00:00 22.3 42 Nordeste 69 Nordeste 0 1013 -- 89
2020-09-04 05:00:00 22.2 40 Nordeste 71 Este 0 1012.5 -- 89
2020-09-04 04:00:00 22.3 45 Nordeste 73 Este 0 1012.7 -- 89
2020-09-04 03:00:00 22.3 44 Nordeste 70 Este 0 1013.1 -- 91
2020-09-04 02:00:00 22.5 41 Nordeste 68 Nordeste 0 1013.8 -- 90
2020-09-04 01:00:00 22.1 40 Nordeste 64 Este 0 1014.2 -- 92
2020-09-04 00:00:00 22.1 41 Nordeste 63 Este 0 1014 -- 92
2020-09-03 23:00:00 22 40 Este 61 Este 0 1013.5 -- 92
2020-09-03 22:00:00 21.8 38 Nordeste 63 Este 0 1013.3 -- 92
2020-09-03 21:00:00 21.6 39 Nordeste 63 Este 0 1012.6 -- 92
2020-09-03 20:00:00 22.4 41 Nordeste 69 Este 0 1012.2 -- 89
2020-09-03 19:00:00 22.5 44 Este 64 Este 0 1012.3 -- 87
2020-09-03 18:00:00 23 42 Este 78 Este 0 1012 -- 83
2020-09-03 17:00:00 24.8 50 Este 71 Este 0 1012.1 -- 78
2020-09-03 16:00:00 25 49 Este 72 Este 0 1012.5 -- 76
2020-09-03 15:00:00 25.2 43 Nordeste 65 Este 0 1012.9 -- 76
2020-09-03 14:00:00 25.3 40 Nordeste 67 Este 0 1013 -- 77
2020-09-03 13:00:00 25 33 Nordeste 62 Este 0 1013.9 -- 77
2020-09-03 12:00:00 24.7 33 Nordeste 61 Nordeste 0 1013.9 -- 79
2020-09-03 11:00:00 24.2 40 Nordeste 66 Nordeste 0 1012.9 -- 80
2020-09-03 10:00:00 23.6 36 Nordeste 64 Este 0 1012.1 -- 81
2020-09-03 09:00:00 22.6 36 Nordeste 60 Nordeste 0 1011.7 -- 86
2020-09-03 08:00:00 22.2 36 Nordeste 64 Nordeste 0 1011.4 -- 89
2020-09-03 07:00:00 22 39 Nordeste 63 Nordeste 0 1010.6 -- 89
2020-09-03 06:00:00 21.9 37 Nordeste 66 Este 0 1010.7 -- 89
2020-09-03 05:00:00 21.8 37 Nordeste 58 Nordeste 0 1010.9 -- 89
2020-09-03 04:00:00 21.5 34 Nordeste 57 Nordeste 0 1010.7 -- 91
2020-09-03 03:00:00 21.4 31 Nordeste 51 Este 0 1011.1 -- 92
2020-09-03 02:00:00 21.3 29 Este 53 Este 0 1011.2 -- 93
2020-09-03 01:00:00 21.2 33 Nordeste 56 Nordeste 0 1011.2 -- 92
2020-09-03 00:00:00 21.2 34 Este 53 Nordeste 0 1011.3 -- 89
2020-09-02 23:00:00 21.5 29 Nordeste 52 Nordeste 0 1011.3 -- 87
2020-09-02 22:00:00 21.6 27 Nordeste 49 Este 0 1010.7 -- 88
2020-09-02 21:00:00 22 29 Nordeste 51 Este 0 1010.1 -- 88
2020-09-02 20:00:00 22.6 31 Nordeste 53 Este 0 1009.8 -- 85
2020-09-02 19:00:00 23.2 31 Nordeste 53 Este 0 1009.3 -- 83
2020-09-02 18:00:00 23.4 34 Nordeste 47 Este 0 1009.4 -- 79
2020-09-02 17:00:00 23.9 31 Nordeste 51 Este 0 1009.4 -- 72
2020-09-02 16:00:00 24.3 35 Este 51 Este 0 1009.3 -- 77
2020-09-02 15:00:00 24.6 31 Nordeste 46 Este 0 1009.9 -- 76
2020-09-02 14:00:00 24.4 26 Este 40 Este 0 1010.1 -- 78
2020-09-02 13:00:00 24.7 27 Este 42 Este 0 1009.9 -- 76
2020-09-02 12:00:00 23.9 27 Este 42 Este 0 1009.7 -- 76
2020-09-02 11:00:00 22.2 20 Este 35 Este 0 1009.6 -- 85
2020-09-02 10:00:00 22.1 23 Este 32 Este 0 1009 -- 85
2020-09-02 09:00:00 21.4 17 Este 29 Este 0 1008.6 -- 89
2020-09-02 08:00:00 20.4 18 Este 27 Este 0 1008.2 -- 92
2020-09-02 07:00:00 20.3 15 Nordeste 26 Este 0 1007.7 -- 94
2020-09-02 06:00:00 19.6 13 Nordeste 19 Nordeste 0 1007.5 -- 96
2020-09-02 05:00:00 18.9 11 Nordeste 18 Este 0 1007.7 -- 99
2020-09-02 04:00:00 18 7 Este 9 Este 0 1007.9 -- 98
2020-09-02 03:00:00 17.8 4 Este 6 Este 0 1007.9 -- 95
2020-09-02 02:00:00 17.2 0 Calma 6 Norte 0 1008.2 -- 91
2020-09-02 01:00:00 18.1 2 Norte 7 Norte 0 1008.1 -- 86
2020-09-02 00:00:00 19.5 5 Norte 9 Norte 0 1008.2 -- 76
2020-09-01 23:00:00 21 4 Norte 17 Este 0 1008.2 -- 88
2020-09-01 22:00:00 21.7 10 Nordeste 19 Nordeste 0 1007.9 -- 86
2020-09-01 21:00:00 22 10 Nordeste 31 Este 0 1007.3 -- 87
2020-09-01 20:00:00 22.9 15 Nordeste 27 Este 0 1007 -- 85
2020-09-01 19:00:00 23.4 19 Este 41 Este 0 1007 -- 82
2020-09-01 18:00:00 24.4 23 Este 36 Este 0 1006.8 -- 77
2020-09-01 17:00:00 24.5 22 Este 36 Este 0 1007.5 -- 75
2020-09-01 16:00:00 24.5 24 Este 39 Este 0 1007.8 -- 75
2020-09-01 15:00:00 24.4 22 Este 36 Este 0 1008.4 -- 74
2020-09-01 14:00:00 23.8 23 Nordeste 37 Este 0 1008.9 -- 75
2020-09-01 13:00:00 23.5 25 Nordeste 45 Este 0 1009 -- 76
2020-09-01 12:00:00 23.5 30 Este 49 Este 0 1008.8 -- 76
2020-09-01 11:00:00 23.8 31 Este 49 Este 0 1008.8 -- 73
2020-09-01 10:00:00 23.2 24 Nordeste 46 Este 0 1008.5 -- 77
2020-09-01 09:00:00 22.2 27 Nordeste 47 Nordeste 0 1008.3 -- 84
2020-09-01 08:00:00 21.6 29 Nordeste 52 Nordeste 0 1007.8 -- 86
2020-09-01 07:00:00 21.7 31 Nordeste 48 Nordeste 0 1007.5 -- 87
2020-09-01 06:00:00 21.6 30 Nordeste 57 Nordeste 0 1007.6 -- 87
2020-09-01 05:00:00 21.7 33 Nordeste 62 Este 0 1007.3 -- 85
2020-09-01 04:00:00 22.2 37 Nordeste 60 Nordeste 0 1007.5 -- 78
2020-09-01 03:00:00 22.2 36 Nordeste 57 Este 0 1008.3 -- 76
2020-09-01 02:00:00 22 33 Nordeste 60 Nordeste 0 1008.8 -- 81
2020-09-01 01:00:00 22.1 33 Nordeste 54 Nordeste 0 1009.2 -- 83
2020-09-01 00:00:00 21.8 30 Nordeste 53 Este 0 1009.6 -- 86
2020-08-31 23:00:00 21.6 33 Nordeste 53 Nordeste 0 1009.7 -- 86
2020-08-31 22:00:00 21.7 30 Nordeste 48 Este 0 1009.4 -- 86
2020-08-31 21:00:00 22.1 31 Nordeste 54 Nordeste 0 1008.7 -- 81
2020-08-31 20:00:00 23.2 30 Nordeste 55 Nordeste 0 1008.5 -- 78
2020-08-31 19:00:00 24.2 29 Nordeste 58 Nordeste 0 1008.6 -- 75
2020-08-31 18:00:00 24.8 34 Nordeste 61 Este 0 1008.7 -- 72
2020-08-31 17:00:00 25.2 36 Nordeste 69 Nordeste 0 1009.2 -- 70
2020-08-31 16:00:00 25 44 Nordeste 78 Este 0 1009.2 -- 70
2020-08-31 15:00:00 25 49 Este 70 Este 0 1009.5 -- 70
2020-08-31 14:00:00 25.5 37 Nordeste 66 Este 0 1010.3 -- 67
2020-08-31 13:00:00 25.3 39 Nordeste 67 Este 0 1010.7 -- 70
2020-08-31 12:00:00 24.7 40 Nordeste 71 Este 0 1010.6 -- 72
2020-08-31 11:00:00 24.2 35 Nordeste 63 Nordeste 0 1010.2 -- 77
2020-08-31 10:00:00 22.9 34 Nordeste 59 Este 0 1010 -- 84
2020-08-31 09:00:00 22.2 33 Nordeste 57 Este 0 1009.6 -- 89
2020-08-31 08:00:00 21.6 31 Nordeste 53 Nordeste 0 1009.4 -- 92
2020-08-31 07:00:00 21.3 24 Nordeste 48 Este 0 1009.1 -- 93
2020-08-31 06:00:00 21.2 27 Nordeste 51 Este 0 1008.8 -- 94
2020-08-31 05:00:00 21.4 31 Nordeste 53 Este 0 1008.7 -- 93
2020-08-31 04:00:00 21.4 30 Nordeste 52 Nordeste 0 1008.9 -- 93
2020-08-31 03:00:00 21.5 30 Nordeste 48 Nordeste 0 1009.1 -- 91
2020-08-31 02:00:00 21.6 29 Nordeste 47 Nordeste 0 1009.1 -- 90
2020-08-31 01:00:00 21.8 30 Nordeste 45 Este 0 1009.2 -- 90
2020-08-31 00:00:00 22 24 Nordeste 37 Nordeste 0 1008.9 -- 87
2020-08-30 23:00:00 22.2 22 Nordeste 38 Nordeste 0 1008.9 -- 86
2020-08-30 22:00:00 22.5 28 Nordeste 45 Nordeste 0 1007.9 -- 85
2020-08-30 21:00:00 22.6 28 Este 43 Este 0 1006.7 -- 83
2020-08-30 20:00:00 23.4 27 Este 46 Este 0 1006.1 -- 79
2020-08-30 19:00:00 24.3 30 Este 44 Nordeste 0 1005.7 -- 79
2020-08-30 18:00:00 24.9 30 Nordeste 47 Este 0 1005.8 -- 74
2020-08-30 17:00:00 25.3 31 Este 50 Este 0 1005.6 -- 72
2020-08-30 16:00:00 26.3 36 Este 51 Este 0 1006.1 -- 63
2020-08-30 15:00:00 26.6 28 Este 49 Este 0 1005.8 -- 59
2020-08-30 14:00:00 26.6 27 Nordeste 49 Nordeste 0 1005.8 -- 59
2020-08-30 13:00:00 24.4 35 Nordeste 55 Este 0 1005 -- 67
2020-08-30 12:00:00 24.7 34 Nordeste 52 Este 0 1005.1 -- 61
2020-08-30 11:00:00 23.2 12 Norte 39 Norte 0 1005.2 -- 66
2020-08-30 10:00:00 19 3 Sudeste 10 Este 0 1005.3 -- 90
2020-08-30 09:00:00 16.9 0 Calma 8 Norte 0 1004.6 -- 98
2020-08-30 08:00:00 15.7 2 Norte 6 Norte 0 1004.5 -- 98
2020-08-30 07:00:00 16 2 Norte 8 Nordeste 0 1004.5 -- 97
2020-08-30 06:00:00 16.1 6 Noroeste 9 Noroeste 0 1004.3 -- 94
2020-08-30 05:00:00 17.2 6 Noroeste 13 Noroeste 0 1004.4 -- 88
2020-08-30 04:00:00 18.1 7 Noroeste 13 Noroeste 0 1004.7 -- 85
2020-08-30 03:00:00 18.3 8 Noroeste 13 Noroeste 0 1005.1 -- 85
2020-08-30 02:00:00 18.6 10 Noroeste 15 Noroeste 0 1005.3 -- 85
2020-08-30 01:00:00 18.8 6 Noroeste 12 Oeste 0 1005.7 -- 85
2020-08-30 00:00:00 19 7 Noroeste 16 Noroeste 0 1005.2 -- 84
2020-08-29 23:00:00 19.6 10 Oeste 23 Oeste 0 1005.5 -- 80
2020-08-29 22:00:00 19.9 14 Oeste 25 Oeste 0 1004.7 -- 80
2020-08-29 21:00:00 20 18 Oeste 30 Oeste 0 1004 -- 78
2020-08-29 20:00:00 20.9 23 Oeste 33 Sudoeste 0 1003.6 -- 73
2020-08-29 19:00:00 21.5 18 Sudoeste 37 Sudoeste 0 1003.4 -- 69
2020-08-29 18:00:00 21.7 22 Sudoeste 37 Oeste 0 1003.3 -- 67
2020-08-29 17:00:00 21.8 21 Sudoeste 42 Oeste 0 1003.4 -- 62
2020-08-29 16:00:00 21 30 Oeste 42 Oeste 0 1004.1 -- 66
2020-08-29 15:00:00 21.3 19 Oeste 39 Oeste 0 1004.7 -- 66
2020-08-29 14:00:00 21.7 24 Oeste 41 Oeste 0 1004.5 -- 65
2020-08-29 13:00:00 20.9 24 Oeste 37 Oeste 0 1005 -- 69
2020-08-29 12:00:00 20.5 22 Oeste 34 Oeste 0 1005.2 -- 70
2020-08-29 11:00:00 19.5 18 Oeste 33 Oeste 0 1004.9 -- 69
2020-08-29 10:00:00 18.8 18 Oeste 29 Oeste 0 1004.4 -- 69
2020-08-29 09:00:00 17.9 14 Noroeste 26 Oeste 0 1004.3 -- 70
2020-08-29 08:00:00 18 13 Oeste 25 Oeste 0 1003.9 -- 73
2020-08-29 07:00:00 18.6 14 Oeste 28 Noroeste 0 1003.4 -- 71
2020-08-29 06:00:00 19.5 15 Oeste 25 Oeste 0 1003.1 -- 72
2020-08-29 05:00:00 20.2 15 Oeste 37 Sudoeste 0 1003.2 -- 80
2020-08-29 04:00:00 20.7 26 Sudoeste 39 Sudoeste 0 1003.2 -- 85
2020-08-29 03:00:00 20.9 25 Sudoeste 43 Sudoeste 0 1003.8 -- 89
2020-08-29 02:00:00 21.1 20 Sudoeste 34 Sudoeste 0 1004.1 -- 93
2020-08-29 01:00:00 21.4 17 Sudoeste 30 Sudoeste 0 1004.9 -- 92
2020-08-29 00:00:00 21.6 12 Sudoeste 25 Oeste 0 1005.1 -- 92
2020-08-28 23:00:00 21.7 7 Oeste 21 Oeste 0 1005.4 -- 91
2020-08-28 22:00:00 21.8 13 Oeste 26 Oeste 0 1005.2 -- 91
2020-08-28 21:00:00 21.9 11 Noroeste 23 Oeste 0 1005.1 -- 92
2020-08-28 20:00:00 22.7 13 Oeste 27 Oeste 0 1005.2 -- 87
2020-08-28 19:00:00 22.9 21 Oeste 32 Oeste 0 1005.4 -- 85
2020-08-28 18:00:00 23.3 21 Oeste 36 Oeste 0 1005.7 -- 82
2020-08-28 17:00:00 23.6 23 Oeste 34 Oeste 0 1006 -- 79
2020-08-28 16:00:00 23.4 20 Oeste 35 Oeste 0 1006.6 -- 80
2020-08-28 15:00:00 23.4 19 Oeste 40 Oeste 0 1007.5 -- 78
2020-08-28 14:00:00 22.7 24 Oeste 39 Oeste 0 1008 -- 81
2020-08-28 13:00:00 22.1 27 Oeste 39 Oeste 0 1008.8 -- 81
2020-08-28 12:00:00 22.1 21 Oeste 36 Oeste 0 1008.8 -- 83
2020-08-28 11:00:00 21.3 23 Oeste 35 Oeste 0 1008.7 -- 88
2020-08-28 10:00:00 20.8 20 Oeste 32 Oeste 0 1008.3 -- 92
2020-08-28 09:00:00 20.7 19 Sudoeste 35 Sudoeste 0 1007.9 -- 96
2020-08-28 08:00:00 20.9 22 Sudoeste 35 Sudoeste 0 1007.6 -- 96
2020-08-28 07:00:00 20.8 19 Sudoeste 28 Oeste 0 1007.3 -- 97
2020-08-28 06:00:00 21 9 Oeste 18 Oeste 0 1007.7 -- 99
2020-08-28 05:00:00 20.8 11 Noroeste 19 Noroeste 0 1007.7 -- 97
2020-08-28 04:00:00 21.1 10 Noroeste 21 Noroeste 0 1007.8 -- 96
2020-08-28 03:00:00 21.2 11 Noroeste 18 Oeste 0 1008.4 -- 97
2020-08-28 02:00:00 21.4 11 Noroeste 15 Noroeste 0 1009 -- 97
2020-08-28 01:00:00 21.4 6 Oeste 11 Noroeste 0 1009.4 -- 95
2020-08-28 00:00:00 21.6 6 Noroeste 15 Oeste 0 1009.6 -- 94
2020-08-27 23:00:00 22 9 Oeste 15 Sudoeste 0 1009.7 -- 94
2020-08-27 22:00:00 22.2 9 Oeste 16 Oeste 0 1009.6 -- 92
2020-08-27 21:00:00 22.8 7 Oeste 18 Oeste 0 1009.1 -- 89
2020-08-27 20:00:00 24.6 10 Oeste 29 Sudoeste 0 1009.1 -- 81
2020-08-27 19:00:00 25 10 Oeste 29 Oeste 0 1009.5 -- 85
2020-08-27 18:00:00 25.1 13 Oeste 25 Oeste 0 1009.8 -- 82
2020-08-27 17:00:00 27.7 13 Oeste 29 Este 0 1010.2 -- 62
2020-08-27 16:00:00 28.6 21 Este 33 Este 0 1010.5 -- 69
2020-08-27 15:00:00 27.5 25 Este 39 Este 0 1011.1 -- 73
2020-08-27 14:00:00 26.9 28 Este 43 Este 0 1011.6 -- 77
2020-08-27 13:00:00 25.9 30 Este 45 Este 0 1011.9 -- 80
2020-08-27 12:00:00 25.5 28 Este 50 Este 0 1011.9 -- 82
2020-08-27 11:00:00 25 28 Este 49 Este 0 1011.8 -- 84
2020-08-27 10:00:00 23.7 28 Este 44 Este 0 1011.5 -- 89
2020-08-27 09:00:00 22.6 26 Este 40 Este 0 1011.8 -- 96
2020-08-27 08:00:00 21.5 25 Este 41 Este 0 1011.5 -- 99
2020-08-27 07:00:00 21.7 24 Este 43 Este 0 1011.4 -- 99
2020-08-27 06:00:00 21.8 28 Este 43 Este 0 1011.3 -- 99
2020-08-27 05:00:00 22.1 24 Este 39 Este 0 1012 -- 97
2020-08-27 04:00:00 22.4 23 Este 38 Nordeste 0 1012.3 -- 94
2020-08-27 03:00:00 23.2 22 Nordeste 37 Nordeste 0 1012.4 -- 94
2020-08-27 02:00:00 23.2 25 Nordeste 41 Este 0 1012.6 -- 93
2020-08-27 01:00:00 23.5 27 Este 44 Este 0 1012.6 -- 94
2020-08-27 00:00:00 23.8 22 Este 35 Este 0 1012.4 -- 90
2020-08-26 23:00:00 23.9 16 Nordeste 27 Este 0 1012.6 -- 90
2020-08-26 22:00:00 24.1 17 Este 25 Nordeste 0 1012.2 -- 89
2020-08-26 21:00:00 24.7 16 Nordeste 32 Este 0 1011.4 -- 84
2020-08-26 20:00:00 25.5 24 Este 44 Este 0 1010.8 -- 82
2020-08-26 19:00:00 26.9 28 Este 46 Este 0 1011 -- 79
2020-08-26 18:00:00 27.1 30 Este 44 Este 0 1011.3 -- 78
2020-08-26 17:00:00 27.4 27 Este 48 Este 0 1011.6 -- 76
2020-08-26 16:00:00 27.3 31 Este 53 Este 0 1012 -- 77
2020-08-26 15:00:00 27.3 30 Este 48 Este 0 1012.3 -- 76
2020-08-26 14:00:00 26.1 31 Este 47 Este 0 1012.6 -- 83
2020-08-26 13:00:00 25.5 33 Este 51 Este 0 1012.9 -- 84
2020-08-26 12:00:00 25.3 35 Este 51 Este 0 1012.8 -- 84
2020-08-26 11:00:00 25 34 Este 48 Este 0 1012.5 -- 84
2020-08-26 10:00:00 24.9 30 Este 47 Este 0 1012 -- 84
2020-08-26 09:00:00 23.5 31 Este 44 Este 0 1011.6 -- 90
2020-08-26 08:00:00 23.2 26 Este 38 Este 0 1011 -- 91
2020-08-26 07:00:00 22.9 23 Este 42 Este 0 1011.1 -- 93
2020-08-26 06:00:00 23.2 30 Este 44 Este 0 1010.6 -- 92
2020-08-26 05:00:00 23.5 21 Nordeste 35 Este 0 1010.8 -- 90
2020-08-26 04:00:00 23.5 19 Nordeste 36 Este 0 1011.2 -- 90
2020-08-26 03:00:00 23.3 15 Nordeste 37 Este 0 1011.4 -- 91
2020-08-26 02:00:00 23.2 17 Nordeste 39 Este 0 1011.3 -- 92
2020-08-26 01:00:00 23.7 19 Nordeste 43 Este 0 1011.7 -- 92
2020-08-26 00:00:00 23.5 29 Este 51 Este 0 1010.8 -- 93
2020-08-25 23:00:00 23.5 33 Este 51 Este 0 1010.5 -- 92
2020-08-25 22:00:00 23.6 33 Este 51 Este 0 1009.5 -- 91
2020-08-25 21:00:00 23.8 36 Este 53 Nordeste 0 1008.8 -- 89
2020-08-25 20:00:00 24.6 37 Este 51 Este 0 1008.4 -- 87
2020-08-25 19:00:00 25.5 31 Este 51 Este 0 1008.6 -- 82
2020-08-25 18:00:00 26.6 33 Este 53 Este 0 1008.7 -- 79
2020-08-25 17:00:00 27.2 32 Este 51 Este 0 1008.9 -- 76
2020-08-25 16:00:00 27.4 34 Este 52 Este 0 1009.3 -- 75
2020-08-25 15:00:00 27.5 32 Este 48 Nordeste 0 1010 -- 76
2020-08-25 14:00:00 27.4 31 Este 50 Este 0 1010.3 -- 74
2020-08-25 13:00:00 27 34 Este 52 Este 0 1010.3 -- 77
2020-08-25 12:00:00 26.9 34 Este 50 Este 0 1010.3 -- 78
2020-08-25 11:00:00 26 30 Este 48 Este 0 1009.8 -- 80
2020-08-25 10:00:00 25 30 Nordeste 53 Este 0 1009.3 -- 87
2020-08-25 09:00:00 24.3 31 Nordeste 54 Este 0 1009.1 -- 89
2020-08-25 08:00:00 23.7 30 Nordeste 55 Este 0 1008.8 -- 90
2020-08-25 07:00:00 23.1 28 Nordeste 53 Este 0 1008.4 -- 95
2020-08-25 06:00:00 23.1 34 Este 53 Nordeste 0 1008.4 -- 96
2020-08-25 05:00:00 23.4 36 Este 58 Este 0 1008.6 -- 96
2020-08-25 04:00:00 23.3 38 Este 56 Este 0 1008.5 -- 94
2020-08-25 03:00:00 23.4 34 Este 55 Este 0 1008.4 -- 96
2020-08-25 02:00:00 23.4 33 Este 55 Este 0 1008.9 -- 96
2020-08-25 01:00:00 23.7 38 Este 58 Este 0 1008.9 -- 96
2020-08-25 00:00:00 23.7 38 Este 56 Nordeste 0 1008.9 -- 95
2020-08-24 23:00:00 23.8 36 Este 59 Este 0 1008.9 -- 95
2020-08-24 22:00:00 23.8 34 Este 55 Este 0 1008.3 -- 95
2020-08-24 21:00:00 24.2 35 Este 54 Nordeste 0 1007.7 -- 93
2020-08-24 20:00:00 24.8 33 Este 55 Este 0 1007.6 -- 90
2020-08-24 19:00:00 25.5 32 Este 50 Este 0 1007.9 -- 86
2020-08-24 18:00:00 26.6 34 Este 53 Este 0 1008.3 -- 84
2020-08-24 17:00:00 27.3 32 Este 53 Este 0 1008.8 -- 79
2020-08-24 16:00:00 27.3 35 Este 52 Este 0 1009.2 -- 78
2020-08-24 15:00:00 27.4 34 Este 54 Este 0 1009.5 -- 76
2020-08-24 14:00:00 27.4 33 Este 55 Este 0 1009.9 -- 77
2020-08-24 13:00:00 27.3 33 Este 50 Este 0 1010.5 -- 74
2020-08-24 12:00:00 27.1 33 Este 53 Este 0 1010.7 -- 74
2020-08-24 11:00:00 26.8 27 Este 50 Este 0 1010.7 -- 76
2020-08-24 10:00:00 25 28 Este 44 Este 0 1010.2 -- 83
2020-08-24 09:00:00 24.4 27 Este 42 Este 0 1010.1 -- 84
2020-08-24 08:00:00 22.9 14 Nordeste 36 Nordeste 0 1010 -- 93
2020-08-24 07:00:00 22.9 21 Nordeste 34 Este 0 1009.8 -- 94
2020-08-24 06:00:00 22.6 20 Nordeste 36 Este 0 1009.9 -- 94
2020-08-24 05:00:00 22.3 24 Este 41 Nordeste 0 1009.9 -- 99
2020-08-24 04:00:00 21.8 31 Este 45 Este 0 1010.1 -- 99
2020-08-24 03:00:00 20.7 27 Este 40 Este 0 1010.3 -- 99
2020-08-24 02:00:00 20.8 26 Este 34 Este 0 1010.5 -- 98
2020-08-24 01:00:00 22 18 Este 27 Este 0 1011 -- 85
2020-08-24 00:00:00 24.7 17 Nordeste 25 Nordeste 0 1010.9 -- 65